Yangjiang, China
Current Conditions -  °F | °C
As of 11:30 PM on Saturday 20 Dec 2014 (Local Time) from VMMC Reporting Station
Few Clouds Few Clouds  
Wind Chill: 59°   Ceiling: Unl
Heat Index: 59°   Visibility: 6mi
Dew Point: 48°   Wind: 7mph
Humidity: 67%   Direction: 360°N
Pressure: 30.12"   Gusts: NA
Location:  21.85°N, 111.97°E
Report Text: VMMC 201530Z 36006KT 9999 FEW033 15/09 Q1020 NOSIG
Loading
Personal Weather Stations






























Interactive Weather Map New forecast layout! Learn more

10-Day Weather Forecast

Advertisements
Track Severe Weather on mobile